createdAt,value
2023-05-17T00:00:31.062Z,12.00
2023-05-17T00:02:58.094Z,11.90
2023-05-17T00:05:25.328Z,11.90
2023-05-17T00:07:52.331Z,12.00
2023-05-17T00:10:19.384Z,12.00
2023-05-17T00:12:46.433Z,12.10
2023-05-17T00:15:14.695Z,12.10
2023-05-17T00:17:41.771Z,12.10
2023-05-17T00:20:09.377Z,12.20
2023-05-17T00:22:36.620Z,12.20
2023-05-17T00:25:04.170Z,12.20
2023-05-17T00:27:31.141Z,12.30
2023-05-17T00:29:58.272Z,12.30
2023-05-17T00:32:25.477Z,12.30
2023-05-17T00:34:52.462Z,12.30
2023-05-17T00:37:19.473Z,12.30
2023-05-17T00:39:46.429Z,12.30
2023-05-17T00:42:14.381Z,12.30
2023-05-17T00:44:41.408Z,12.30
2023-05-17T00:47:08.533Z,12.30
2023-05-17T00:49:35.585Z,12.30
2023-05-17T00:52:02.605Z,12.30
2023-05-17T00:54:30.582Z,12.30
2023-05-17T00:56:59.508Z,12.40
2023-05-17T00:59:28.069Z,12.40
2023-05-17T01:01:56.065Z,12.30
2023-05-17T01:04:23.215Z,12.40
2023-05-17T01:06:50.600Z,12.40
2023-05-17T01:09:18.239Z,12.40
2023-05-17T01:12:08.926Z,12.30
2023-05-17T01:15:06.585Z,12.40
2023-05-17T01:17:40.886Z,12.40
2023-05-17T01:20:31.500Z,12.40
2023-05-17T01:23:11.488Z,12.40
2023-05-17T01:25:42.337Z,12.40
2023-05-17T01:28:12.029Z,12.40
2023-05-17T01:30:40.352Z,12.30
2023-05-17T01:33:07.786Z,12.30
2023-05-17T01:35:34.775Z,12.30
2023-05-17T01:38:01.925Z,12.30
2023-05-17T01:40:29.859Z,12.40
2023-05-17T01:43:04.957Z,12.30
2023-05-17T01:45:44.191Z,12.30
2023-05-17T01:48:40.228Z,12.30
2023-05-17T01:51:10.153Z,12.30
2023-05-17T01:53:48.188Z,12.30
2023-05-17T01:56:22.453Z,12.20
2023-05-17T01:58:52.105Z,12.30
2023-05-17T02:01:21.435Z,12.30
2023-05-17T02:03:50.001Z,12.30
2023-05-17T02:06:17.710Z,12.30
2023-05-17T02:08:44.656Z,12.30
2023-05-17T02:11:11.611Z,12.20
2023-05-17T02:13:38.538Z,12.20
2023-05-17T02:16:05.795Z,12.20
2023-05-17T02:18:35.509Z,12.30
2023-05-17T02:21:02.751Z,12.20
2023-05-17T02:23:29.777Z,12.20
2023-05-17T02:25:56.712Z,12.20
2023-05-17T02:28:23.649Z,12.20
2023-05-17T02:30:50.593Z,12.30
2023-05-17T02:33:17.598Z,12.20
2023-05-17T02:35:44.932Z,12.20
2023-05-17T02:38:11.844Z,12.30
2023-05-17T02:40:41.998Z,12.20
2023-05-17T02:43:08.943Z,12.20
2023-05-17T02:45:35.870Z,12.20
2023-05-17T02:48:03.119Z,12.20
2023-05-17T02:50:30.020Z,12.20
2023-05-17T02:52:57.426Z,12.20
2023-05-17T02:55:24.499Z,12.20
2023-05-17T02:57:51.525Z,12.20
2023-05-17T03:00:18.746Z,12.20
2023-05-17T03:02:55.790Z,12.20
2023-05-17T03:05:22.869Z,12.30
2023-05-17T03:07:49.821Z,12.30
2023-05-17T03:10:17.001Z,12.30
2023-05-17T03:12:43.963Z,12.30
2023-05-17T03:15:11.204Z,12.30
2023-05-17T03:17:38.270Z,12.30
2023-05-17T03:20:07.857Z,12.30
2023-05-17T03:22:34.932Z,12.30
2023-05-17T03:25:01.954Z,12.30
2023-05-17T03:27:30.937Z,12.30
2023-05-17T03:29:57.935Z,12.30
2023-05-17T03:32:25.145Z,12.30
2023-05-17T03:34:52.368Z,12.30
2023-05-17T03:37:19.531Z,12.30
2023-05-17T03:39:46.445Z,12.30
2023-05-17T03:42:13.445Z,12.30
2023-05-17T03:44:41.117Z,12.30
2023-05-17T03:47:08.070Z,12.30
2023-05-17T03:49:35.026Z,12.30
2023-05-17T03:52:02.128Z,12.30
2023-05-17T03:54:29.115Z,12.30
2023-05-17T03:56:56.156Z,12.30
2023-05-17T03:59:23.222Z,12.30
2023-05-17T04:01:50.607Z,12.30
2023-05-17T04:04:17.682Z,12.20
2023-05-17T04:06:44.809Z,12.30
2023-05-17T04:09:13.924Z,12.30
2023-05-17T04:11:41.822Z,12.30
2023-05-17T04:14:08.749Z,12.30
2023-05-17T04:16:35.693Z,12.30
2023-05-17T04:19:06.012Z,12.40
2023-05-17T04:21:33.100Z,12.30
2023-05-17T04:24:00.142Z,12.40
2023-05-17T04:26:27.436Z,12.30
2023-05-17T04:28:55.485Z,12.30
2023-05-17T04:31:22.759Z,12.40
2023-05-17T04:33:49.922Z,12.40
2023-05-17T04:36:17.673Z,12.40
2023-05-17T04:38:44.656Z,12.30
2023-05-17T04:41:11.745Z,12.30
2023-05-17T04:43:38.739Z,12.30
2023-05-17T04:46:06.125Z,12.30
2023-05-17T04:48:33.351Z,12.40
2023-05-17T04:51:07.408Z,12.40
2023-05-17T04:53:34.571Z,12.40
2023-05-17T04:56:02.300Z,12.40
2023-05-17T04:58:29.253Z,12.40
2023-05-17T05:00:56.334Z,12.40
2023-05-17T05:03:23.558Z,12.40
2023-05-17T05:05:51.043Z,12.40
2023-05-17T05:08:17.980Z,12.40
2023-05-17T05:10:45.091Z,12.40
2023-05-17T05:13:12.203Z,12.40
2023-05-17T05:15:39.161Z,12.40
2023-05-17T05:18:06.243Z,12.40
2023-05-17T05:20:33.308Z,12.30
2023-05-17T05:23:01.326Z,12.30
2023-05-17T05:25:28.624Z,12.20
2023-05-17T05:27:55.803Z,12.20
2023-05-17T05:30:22.942Z,12.20
2023-05-17T05:32:53.183Z,12.20
2023-05-17T05:35:20.589Z,12.20
2023-05-17T05:37:47.548Z,12.10
2023-05-17T05:40:15.200Z,12.00
2023-05-17T05:42:42.886Z,12.00
2023-05-17T05:45:10.759Z,12.00
2023-05-17T05:47:37.819Z,11.90
2023-05-17T05:50:06.158Z,12.00
2023-05-17T05:52:33.119Z,11.90
2023-05-17T05:55:00.486Z,11.80
2023-05-17T05:57:27.520Z,11.70
2023-05-17T05:59:54.469Z,11.70
2023-05-17T06:02:21.480Z,11.60
2023-05-17T06:04:48.628Z,11.50
2023-05-17T06:07:16.228Z,11.40
2023-05-17T06:09:45.830Z,11.40
2023-05-17T06:12:13.029Z,11.40
2023-05-17T06:14:40.084Z,11.50
2023-05-17T06:17:07.127Z,11.40
2023-05-17T06:19:34.234Z,11.50
2023-05-17T06:22:01.269Z,11.50
2023-05-17T06:24:28.231Z,11.50
2023-05-17T06:26:55.213Z,11.60
2023-05-17T06:29:22.350Z,11.60
2023-05-17T06:31:49.362Z,11.60
2023-05-17T06:34:16.325Z,11.70
2023-05-17T06:36:43.450Z,11.80
2023-05-17T06:39:11.120Z,12.00
2023-05-17T06:41:38.294Z,12.00
2023-05-17T06:44:05.845Z,12.20
2023-05-17T06:46:32.868Z,12.30
2023-05-17T06:48:59.976Z,12.40
2023-05-17T06:51:27.101Z,12.40
2023-05-17T06:53:54.085Z,12.60
2023-05-17T06:56:21.053Z,12.70
2023-05-17T06:58:48.144Z,12.70
2023-05-17T07:01:15.831Z,12.90
2023-05-17T07:03:43.468Z,12.80
2023-05-17T07:06:10.737Z,12.90
2023-05-17T07:08:40.488Z,12.80
2023-05-17T07:11:07.491Z,13.00
2023-05-17T07:13:34.458Z,13.00
2023-05-17T07:16:01.693Z,12.90
2023-05-17T07:18:28.916Z,12.90
2023-05-17T07:20:56.007Z,12.90
2023-05-17T07:23:22.943Z,13.10
2023-05-17T07:25:49.963Z,13.10
2023-05-17T07:28:16.978Z,13.10
2023-05-17T07:30:44.291Z,13.10
2023-05-17T07:33:11.627Z,13.00
2023-05-17T07:35:38.611Z,12.90
2023-05-17T07:38:05.589Z,13.00
2023-05-17T07:40:32.548Z,13.00
2023-05-17T07:42:59.485Z,12.90
2023-05-17T07:45:26.547Z,12.80
2023-05-17T07:47:53.652Z,12.80
2023-05-17T07:50:20.618Z,12.80
2023-05-17T07:52:48.344Z,12.80
2023-05-17T07:55:25.641Z,12.80
2023-05-17T07:57:52.678Z,12.80
2023-05-17T08:00:21.287Z,12.80
2023-05-17T08:02:49.495Z,12.70
2023-05-17T08:05:16.656Z,12.70
2023-05-17T08:07:43.605Z,12.70
2023-05-17T08:10:11.260Z,12.60
2023-05-17T08:12:38.343Z,12.60
2023-05-17T08:15:05.696Z,12.60
2023-05-17T08:17:32.810Z,12.50
2023-05-17T08:19:59.931Z,12.50
2023-05-17T08:22:27.525Z,12.50
2023-05-17T08:24:54.640Z,12.40
2023-05-17T08:27:21.662Z,12.50
2023-05-17T08:29:48.607Z,12.40
2023-05-17T08:32:15.636Z,12.50
2023-05-17T08:34:42.606Z,12.50
2023-05-17T08:37:10.074Z,12.40
2023-05-17T08:39:37.169Z,12.40
2023-05-17T08:42:08.009Z,12.20
2023-05-17T08:44:36.501Z,12.10
2023-05-17T08:47:04.472Z,11.90
2023-05-17T08:49:33.562Z,11.80
2023-05-17T08:52:03.406Z,11.70
2023-05-17T08:54:30.386Z,11.50
2023-05-17T08:57:00.696Z,11.40
2023-05-17T08:59:33.887Z,11.40
2023-05-17T09:02:01.715Z,11.30
2023-05-17T09:04:31.093Z,11.30
2023-05-17T09:06:58.992Z,11.30
2023-05-17T09:09:26.713Z,11.30
2023-05-17T09:11:53.747Z,11.20
2023-05-17T09:14:20.754Z,11.20
2023-05-17T09:16:48.451Z,11.20
2023-05-17T09:19:17.613Z,11.10
2023-05-17T09:21:48.020Z,11.10
2023-05-17T09:24:15.148Z,11.00
2023-05-17T09:26:44.660Z,10.90
2023-05-17T09:29:15.978Z,10.90
2023-05-17T09:31:44.022Z,10.80
2023-05-17T09:34:11.677Z,10.80
2023-05-17T09:36:42.832Z,10.70
2023-05-17T09:39:12.879Z,10.60
2023-05-17T09:41:47.943Z,10.40
2023-05-17T09:44:15.895Z,10.30
2023-05-17T09:46:48.540Z,10.30
2023-05-17T09:49:17.211Z,10.30
2023-05-17T09:51:46.828Z,10.30
2023-05-17T09:54:14.237Z,10.20
2023-05-17T09:56:41.429Z,10.10
2023-05-17T09:59:13.050Z,10.20
2023-05-17T10:01:43.304Z,10.20
2023-05-17T10:04:11.516Z,10.20
2023-05-17T10:06:49.571Z,10.10
2023-05-17T10:09:21.937Z,9.90
2023-05-17T10:11:51.011Z,9.90
2023-05-17T10:14:23.599Z,9.90
2023-05-17T10:16:52.248Z,9.90
2023-05-17T10:19:21.338Z,9.90
2023-05-17T10:21:50.616Z,9.90
2023-05-17T10:24:18.276Z,9.90
2023-05-17T10:26:45.567Z,10.00
2023-05-17T10:29:12.987Z,10.00
2023-05-17T10:31:43.506Z,10.00
2023-05-17T10:34:11.838Z,10.10
2023-05-17T10:36:41.388Z,10.20
2023-05-17T10:39:08.654Z,10.20
2023-05-17T10:41:38.501Z,10.30
2023-05-17T10:44:10.502Z,10.50
2023-05-17T10:46:37.674Z,10.50
2023-05-17T10:49:05.102Z,10.50
2023-05-17T10:51:37.931Z,10.60
2023-05-17T10:54:14.144Z,10.80
2023-05-17T10:56:47.068Z,11.00
2023-05-17T10:59:24.510Z,11.40
2023-05-17T11:01:59.859Z,11.60
2023-05-17T11:04:39.134Z,11.60
2023-05-17T11:07:29.304Z,11.60
2023-05-17T11:10:08.549Z,11.60
2023-05-17T11:12:44.221Z,11.40
2023-05-17T11:15:13.573Z,11.20
2023-05-17T11:17:44.110Z,11.00
2023-05-17T11:20:32.314Z,11.00
2023-05-17T11:23:05.077Z,10.80
2023-05-17T11:25:37.223Z,10.60
2023-05-17T11:28:10.150Z,10.60
2023-05-17T11:30:43.539Z,10.50
2023-05-17T11:33:24.958Z,10.40
2023-05-17T11:35:56.729Z,10.30
2023-05-17T11:38:30.432Z,10.30
2023-05-17T11:40:57.880Z,10.20
2023-05-17T11:43:27.382Z,10.20
2023-05-17T11:46:01.459Z,10.30
2023-05-17T11:48:30.756Z,10.30
2023-05-17T11:51:00.641Z,10.40
2023-05-17T11:53:31.795Z,10.40
2023-05-17T11:56:06.360Z,10.40
2023-05-17T11:58:33.878Z,10.40
2023-05-17T12:01:00.946Z,10.40
2023-05-17T12:03:29.865Z,10.40
2023-05-17T12:06:09.638Z,10.50
2023-05-17T12:08:38.571Z,10.40
2023-05-17T12:11:07.272Z,10.30
2023-05-17T12:13:35.839Z,10.30
2023-05-17T12:16:07.129Z,10.20
2023-05-17T12:18:45.416Z,10.10
2023-05-17T12:21:16.293Z,10.10
2023-05-17T12:23:46.318Z,9.90
2023-05-17T12:26:16.253Z,9.90
2023-05-17T12:28:57.788Z,9.90
2023-05-17T12:31:29.559Z,9.90
2023-05-17T12:33:59.266Z,9.90
2023-05-17T12:36:29.241Z,9.90
2023-05-17T12:38:56.847Z,9.90
2023-05-17T12:41:26.526Z,9.90
2023-05-17T12:44:06.151Z,9.90
2023-05-17T12:46:40.930Z,9.90
2023-05-17T12:49:12.320Z,9.90
2023-05-17T12:51:43.887Z,9.80
2023-05-17T12:54:12.550Z,9.80
2023-05-17T12:56:43.721Z,9.90
2023-05-17T12:59:11.009Z,9.80
2023-05-17T13:01:49.974Z,9.70
2023-05-17T13:04:19.013Z,9.60
2023-05-17T13:07:03.748Z,9.60
2023-05-17T13:09:32.452Z,9.50
2023-05-17T13:12:07.176Z,9.50
2023-05-17T13:14:37.553Z,9.50
2023-05-17T13:17:05.934Z,9.30
2023-05-17T13:19:33.609Z,9.30
2023-05-17T13:22:00.696Z,9.30
2023-05-17T13:24:28.263Z,9.20
2023-05-17T13:26:55.246Z,9.20
2023-05-17T13:29:35.340Z,9.20
2023-05-17T13:32:07.828Z,9.10
2023-05-17T13:34:35.186Z,9.10
2023-05-17T13:37:02.233Z,9.00
2023-05-17T13:39:29.284Z,9.00
2023-05-17T13:41:56.268Z,9.00
2023-05-17T13:44:23.256Z,9.00
2023-05-17T13:46:50.242Z,8.90
2023-05-17T13:49:17.646Z,8.90
2023-05-17T13:51:45.121Z,9.00
2023-05-17T13:54:12.696Z,9.00
2023-05-17T13:56:39.682Z,9.00
2023-05-17T13:59:06.593Z,9.00
2023-05-17T14:01:33.765Z,9.00
2023-05-17T14:04:01.122Z,8.90
2023-05-17T14:06:28.584Z,8.90
2023-05-17T14:08:57.711Z,8.80
2023-05-17T14:11:24.775Z,8.80
2023-05-17T14:13:51.912Z,8.80
2023-05-17T14:16:18.842Z,8.70
2023-05-17T14:18:46.753Z,8.60
2023-05-17T14:21:13.774Z,8.60
2023-05-17T14:23:40.804Z,8.60
2023-05-17T14:26:07.844Z,8.70
2023-05-17T14:28:39.188Z,8.70
2023-05-17T14:31:07.451Z,8.60
2023-05-17T14:33:34.930Z,8.60
2023-05-17T14:36:02.144Z,8.60
2023-05-17T14:38:29.125Z,8.60
2023-05-17T14:40:56.263Z,8.50
2023-05-17T14:43:23.824Z,8.50
2023-05-17T14:45:50.925Z,8.40
2023-05-17T14:48:17.985Z,8.40
2023-05-17T14:50:44.979Z,8.40
2023-05-17T14:53:12.010Z,8.40
2023-05-17T14:55:39.049Z,8.40
2023-05-17T14:58:06.513Z,8.40
2023-05-17T15:00:33.521Z,8.30
2023-05-17T15:03:00.642Z,8.40
2023-05-17T15:05:28.080Z,8.50
2023-05-17T15:07:55.259Z,8.50
2023-05-17T15:10:22.735Z,8.60
2023-05-17T15:12:49.882Z,8.60
2023-05-17T15:15:17.937Z,8.50
2023-05-17T15:17:44.900Z,8.60
2023-05-17T15:20:12.309Z,8.60
2023-05-17T15:22:39.483Z,8.60
2023-05-17T15:25:06.665Z,8.60
2023-05-17T15:27:33.733Z,8.60
2023-05-17T15:30:00.831Z,8.60
2023-05-17T15:32:27.865Z,8.60
2023-05-17T15:34:54.883Z,8.60
2023-05-17T15:37:21.810Z,8.50
2023-05-17T15:39:49.115Z,8.50
2023-05-17T15:42:16.370Z,8.60
2023-05-17T15:44:43.313Z,8.50
2023-05-17T15:47:10.295Z,8.60
2023-05-17T15:49:37.676Z,8.60
2023-05-17T15:52:04.933Z,8.60
2023-05-17T15:54:31.884Z,8.70
2023-05-17T15:56:58.881Z,8.70
2023-05-17T15:59:26.396Z,8.70
2023-05-17T16:01:53.296Z,8.70
2023-05-17T16:04:20.889Z,8.80
2023-05-17T16:06:47.962Z,8.80
2023-05-17T16:09:14.941Z,8.90
2023-05-17T16:11:42.280Z,8.90
2023-05-17T16:14:10.262Z,9.00
2023-05-17T16:16:37.196Z,9.00
2023-05-17T16:19:05.810Z,9.10
2023-05-17T16:21:32.817Z,9.10
2023-05-17T16:23:59.767Z,9.20
2023-05-17T16:26:27.716Z,9.20
2023-05-17T16:28:56.866Z,9.20
2023-05-17T16:31:23.970Z,9.20
2023-05-17T16:33:51.852Z,9.10
2023-05-17T16:36:19.081Z,9.10
2023-05-17T16:38:46.087Z,9.10
2023-05-17T16:41:13.061Z,9.10
2023-05-17T16:43:40.020Z,9.10
2023-05-17T16:46:07.134Z,9.10
2023-05-17T16:48:34.149Z,9.10
2023-05-17T16:51:01.120Z,9.10
2023-05-17T16:53:30.786Z,9.10
2023-05-17T16:55:57.851Z,9.10
2023-05-17T16:58:26.044Z,9.00
2023-05-17T17:00:53.090Z,9.00
2023-05-17T17:03:20.103Z,9.00
2023-05-17T17:05:47.144Z,9.00
2023-05-17T17:08:14.113Z,9.00
2023-05-17T17:10:41.218Z,9.00
2023-05-17T17:13:08.256Z,9.10
2023-05-17T17:15:35.238Z,9.20
2023-05-17T17:18:02.442Z,9.20
2023-05-17T17:20:29.629Z,9.30
2023-05-17T17:22:56.872Z,9.30
2023-05-17T17:25:24.822Z,9.30
2023-05-17T17:27:53.257Z,9.40
2023-05-17T17:30:20.468Z,9.40
2023-05-17T17:32:47.648Z,9.40
2023-05-17T17:35:14.709Z,9.30
2023-05-17T17:37:41.685Z,9.40
2023-05-17T17:40:09.159Z,9.40
2023-05-17T17:42:36.080Z,9.30
2023-05-17T17:45:03.192Z,9.30
2023-05-17T17:47:30.194Z,9.30
2023-05-17T17:49:57.233Z,9.20
2023-05-17T17:52:24.263Z,9.20
2023-05-17T17:54:51.332Z,9.20
2023-05-17T17:57:19.402Z,9.20
2023-05-17T17:59:46.343Z,9.20
2023-05-17T18:02:13.279Z,9.30
2023-05-17T18:04:40.931Z,9.20
2023-05-17T18:07:07.975Z,9.20
2023-05-17T18:09:34.952Z,9.30
2023-05-17T18:12:01.926Z,9.30
2023-05-17T18:14:28.908Z,9.30
2023-05-17T18:16:56.143Z,9.30
2023-05-17T18:19:23.291Z,9.30
2023-05-17T18:21:50.809Z,9.40
2023-05-17T18:24:18.379Z,9.30
2023-05-17T18:26:45.461Z,9.40
2023-05-17T18:29:12.623Z,9.40
2023-05-17T18:31:39.613Z,9.40
2023-05-17T18:34:06.591Z,9.40
2023-05-17T18:36:33.558Z,9.40
2023-05-17T18:39:00.991Z,9.30
2023-05-17T18:41:28.097Z,9.40
2023-05-17T18:43:55.937Z,9.40
2023-05-17T18:46:22.908Z,9.40
2023-05-17T18:48:49.894Z,9.30
2023-05-17T18:51:16.929Z,9.30
2023-05-17T18:53:44.430Z,9.30
2023-05-17T18:56:12.661Z,9.30
2023-05-17T18:58:39.722Z,9.30
2023-05-17T19:01:06.731Z,9.30
2023-05-17T19:03:33.777Z,9.20
2023-05-17T19:06:00.914Z,9.30
2023-05-17T19:08:27.894Z,9.20
2023-05-17T19:10:54.926Z,9.20
2023-05-17T19:13:21.888Z,9.20
2023-05-17T19:15:49.607Z,9.30
2023-05-17T19:18:16.700Z,9.20
2023-05-17T19:20:43.794Z,9.20
2023-05-17T19:23:10.851Z,9.20
2023-05-17T19:25:37.791Z,9.10
2023-05-17T19:28:04.955Z,9.20
2023-05-17T19:30:32.995Z,9.20
2023-05-17T19:33:00.297Z,9.10
2023-05-17T19:35:27.609Z,9.10
2023-05-17T19:37:56.963Z,9.10
2023-05-17T19:40:24.493Z,9.00
2023-05-17T19:42:51.512Z,9.00
2023-05-17T19:45:18.517Z,9.00
2023-05-17T19:47:45.632Z,9.00
2023-05-17T19:50:12.904Z,9.10
2023-05-17T19:52:40.446Z,9.00
2023-05-17T19:55:07.493Z,9.10
2023-05-17T19:57:34.497Z,9.10
2023-05-17T20:00:01.505Z,9.10
2023-05-17T20:02:28.621Z,9.00
2023-05-17T20:04:55.655Z,9.00
2023-05-17T20:07:25.913Z,9.00
2023-05-17T20:09:53.482Z,9.00
2023-05-17T20:12:20.616Z,9.00
2023-05-17T20:14:47.644Z,9.00
2023-05-17T20:17:14.671Z,9.00
2023-05-17T20:19:41.630Z,8.90
2023-05-17T20:22:08.712Z,8.90
2023-05-17T20:24:35.987Z,8.90
2023-05-17T20:27:03.200Z,8.90
2023-05-17T20:29:30.596Z,8.80
2023-05-17T20:31:59.176Z,8.80
2023-05-17T20:34:28.543Z,8.80
2023-05-17T20:36:58.763Z,8.80
2023-05-17T20:39:29.585Z,8.80
2023-05-17T20:41:58.230Z,8.80
2023-05-17T20:44:26.032Z,8.80
2023-05-17T20:46:56.880Z,8.80
2023-05-17T20:49:23.868Z,8.80
2023-05-17T20:51:51.151Z,8.80
2023-05-17T20:54:18.111Z,8.80
2023-05-17T20:56:45.205Z,8.70
2023-05-17T20:59:12.210Z,8.70
2023-05-17T21:01:39.784Z,8.70
2023-05-17T21:04:07.001Z,8.70
2023-05-17T21:06:34.341Z,8.60
2023-05-17T21:09:02.500Z,8.60
2023-05-17T21:11:30.014Z,8.60
2023-05-17T21:14:00.251Z,8.60
2023-05-17T21:16:27.807Z,8.60
2023-05-17T21:18:55.113Z,8.60
2023-05-17T21:21:22.233Z,8.60
2023-05-17T21:23:49.279Z,8.50
2023-05-17T21:26:16.243Z,8.50
2023-05-17T21:28:43.195Z,8.50
2023-05-17T21:31:10.242Z,8.50
2023-05-17T21:33:37.212Z,8.50
2023-05-17T21:36:04.408Z,8.50
2023-05-17T21:38:31.562Z,8.40
2023-05-17T21:40:58.523Z,8.40
2023-05-17T21:43:25.603Z,8.30
2023-05-17T21:45:52.610Z,8.30
2023-05-17T21:48:19.804Z,8.30
2023-05-17T21:50:46.872Z,8.30
2023-05-17T21:53:14.029Z,8.20
2023-05-17T21:55:56.129Z,8.20
2023-05-17T21:58:23.738Z,8.30
2023-05-17T22:00:50.687Z,8.20
2023-05-17T22:03:18.158Z,8.30
2023-05-17T22:05:45.231Z,8.20
2023-05-17T22:08:12.395Z,8.30
2023-05-17T22:10:40.489Z,8.20
2023-05-17T22:13:08.298Z,8.20
2023-05-17T22:15:35.679Z,8.30
2023-05-17T22:18:05.570Z,8.20
2023-05-17T22:20:33.300Z,8.20
2023-05-17T22:23:00.443Z,8.30
2023-05-17T22:25:27.351Z,8.30
2023-05-17T22:27:54.271Z,8.30
2023-05-17T22:30:21.666Z,8.30
2023-05-17T22:32:48.625Z,8.30
2023-05-17T22:35:15.897Z,8.30
2023-05-17T22:37:43.350Z,8.30
2023-05-17T22:40:11.055Z,8.30
2023-05-17T22:42:38.067Z,8.30
2023-05-17T22:45:05.364Z,8.20
2023-05-17T22:47:33.757Z,8.20
2023-05-17T22:50:00.913Z,8.20
2023-05-17T22:52:27.938Z,8.30
2023-05-17T22:54:54.950Z,8.30
2023-05-17T22:57:21.999Z,8.20
2023-05-17T22:59:48.939Z,8.30
2023-05-17T23:02:16.264Z,8.20
2023-05-17T23:04:45.914Z,8.20
2023-05-17T23:07:13.039Z,8.20
2023-05-17T23:09:40.776Z,8.20
2023-05-17T23:12:13.979Z,8.20
2023-05-17T23:14:41.416Z,8.20
2023-05-17T23:17:08.623Z,8.20
2023-05-17T23:19:36.065Z,8.20
2023-05-17T23:22:04.159Z,8.10
2023-05-17T23:24:31.564Z,8.10
2023-05-17T23:26:58.959Z,8.00
2023-05-17T23:29:26.256Z,8.10
2023-05-17T23:31:53.880Z,8.00
2023-05-17T23:34:22.062Z,8.10
2023-05-17T23:36:49.032Z,8.00
2023-05-17T23:39:16.031Z,8.00
2023-05-17T23:41:43.153Z,8.00
2023-05-17T23:44:10.432Z,8.00
2023-05-17T23:46:37.887Z,8.00
2023-05-17T23:49:05.887Z,8.00
2023-05-17T23:51:34.754Z,8.00
2023-05-17T23:54:01.872Z,8.00
2023-05-17T23:56:29.031Z,8.00
2023-05-17T23:58:56.013Z,8.00
